createdAt,value
2018-07-15T00:00:48.464Z,98257.73
2018-07-15T00:03:17.824Z,98258.33
2018-07-15T00:05:47.148Z,98256.64
2018-07-15T00:08:16.488Z,98256.78
2018-07-15T00:10:46.835Z,98251.91
2018-07-15T00:13:16.255Z,98246.86
2018-07-15T00:15:45.908Z,98248.10
2018-07-15T00:18:15.323Z,98252.73
2018-07-15T00:20:44.640Z,98249.66
2018-07-15T00:23:13.971Z,98250.93
2018-07-15T00:25:43.324Z,98250.23
2018-07-15T00:28:12.663Z,98250.78
2018-07-15T00:30:42.032Z,98252.52
2018-07-15T00:33:11.421Z,98259.34
2018-07-15T00:35:40.723Z,98255.70
2018-07-15T00:38:10.069Z,98253.67
2018-07-15T00:40:39.531Z,98248.91
2018-07-15T00:43:09.069Z,98250.64
2018-07-15T00:45:38.415Z,98251.48
2018-07-15T00:48:07.751Z,98254.62
2018-07-15T00:50:37.117Z,98258.83
2018-07-15T00:53:06.444Z,98262.77
2018-07-15T00:55:35.988Z,98264.90
2018-07-15T00:58:05.439Z,98259.78
2018-07-15T01:10:01.789Z,98260.69
2018-07-15T01:12:31.153Z,98264.39
2018-07-15T01:15:00.505Z,98260.58
2018-07-15T01:17:29.837Z,98259.73
2018-07-15T01:19:59.163Z,98254.63
2018-07-15T01:22:28.500Z,98259.44
2018-07-15T01:24:58.052Z,98251.61
2018-07-15T01:27:27.379Z,98247.98
2018-07-15T01:29:56.751Z,98248.03
2018-07-15T01:32:26.110Z,98253.98
2018-07-15T01:34:55.460Z,98251.60
2018-07-15T01:37:24.790Z,98250.66
2018-07-15T01:39:54.139Z,98248.02
2018-07-15T01:42:23.493Z,98255.33
2018-07-15T01:44:52.847Z,98250.60
2018-07-15T01:47:22.229Z,98248.47
2018-07-15T01:49:51.811Z,98244.10
2018-07-15T01:52:21.140Z,98243.61
2018-07-15T01:54:50.484Z,98247.54
2018-07-15T01:57:19.804Z,98245.90
2018-07-15T01:59:49.141Z,98248.47
2018-07-15T02:02:18.463Z,98242.58
2018-07-15T02:04:47.835Z,98232.41
2018-07-15T02:07:17.224Z,98238.64
2018-07-15T02:09:46.551Z,98232.30
2018-07-15T02:12:15.894Z,98237.09
2018-07-15T02:14:45.372Z,98233.59
2018-07-15T02:17:15.021Z,98235.81
2018-07-15T02:19:44.361Z,98237.14
2018-07-15T02:22:13.724Z,98237.32
2018-07-15T02:24:43.067Z,98232.16
2018-07-15T02:27:12.428Z,98228.30
2018-07-15T02:29:41.773Z,98230.97
2018-07-15T02:32:11.121Z,98232.70
2018-07-15T02:34:40.451Z,98230.52
2018-07-15T02:37:10.075Z,98231.49
2018-07-15T02:39:39.460Z,98238.42
2018-07-15T02:42:08.851Z,98232.43
2018-07-15T02:44:37.974Z,98232.11
2018-07-15T02:47:07.288Z,98230.42
2018-07-15T02:49:36.605Z,98222.05
2018-07-15T02:52:05.977Z,98230.66
2018-07-15T02:54:35.481Z,98219.96
2018-07-15T02:57:04.936Z,98220.73
2018-07-15T02:59:34.287Z,98220.80
2018-07-15T03:02:03.897Z,98224.71
2018-07-15T03:04:33.299Z,98226.55
2018-07-15T03:07:02.605Z,98228.29
2018-07-15T03:09:31.960Z,98227.44
2018-07-15T03:12:01.277Z,98230.02
2018-07-15T03:14:30.699Z,98228.80
2018-07-15T03:17:00.062Z,98227.63
2018-07-15T03:19:29.380Z,98227.59
2018-07-15T03:21:58.732Z,98225.46
2018-07-15T03:24:28.084Z,98221.27
2018-07-15T03:26:57.515Z,98220.46
2018-07-15T03:29:26.830Z,98222.55
2018-07-15T03:31:56.210Z,98224.77
2018-07-15T03:34:25.506Z,98229.88
2018-07-15T03:36:54.841Z,98222.11
2018-07-15T03:39:24.217Z,98222.12
2018-07-15T03:41:53.532Z,98225.50
2018-07-15T03:44:22.856Z,98221.30
2018-07-15T03:46:52.329Z,98223.91
2018-07-15T03:49:21.633Z,98220.13
2018-07-15T03:51:50.977Z,98225.24
2018-07-15T03:54:20.323Z,98219.28
2018-07-15T03:56:49.664Z,98215.42
2018-07-15T03:59:19.089Z,98217.22
2018-07-15T04:01:48.203Z,98216.41
2018-07-15T04:04:17.537Z,98215.53
2018-07-15T04:06:46.865Z,98211.67
2018-07-15T04:09:16.240Z,98206.00
2018-07-15T04:11:45.589Z,98204.20
2018-07-15T04:14:14.944Z,98195.85
2018-07-15T04:16:44.343Z,98194.00
2018-07-15T04:19:13.646Z,98195.25
2018-07-15T04:21:43.020Z,98194.77
2018-07-15T04:24:12.375Z,98195.22
2018-07-15T04:26:41.685Z,98191.72
2018-07-15T04:29:10.980Z,98197.63
2018-07-15T04:31:40.380Z,98189.77
2018-07-15T04:34:09.720Z,98191.86
2018-07-15T04:36:39.057Z,98192.63
2018-07-15T04:39:09.376Z,98191.33
2018-07-15T04:41:38.877Z,98194.17
2018-07-15T04:44:08.693Z,98198.44
2018-07-15T04:46:38.032Z,98194.92
2018-07-15T04:49:07.375Z,98193.91
2018-07-15T04:51:36.763Z,98192.88
2018-07-15T04:54:06.347Z,98194.16
2018-07-15T04:56:35.709Z,98192.79
2018-07-15T04:59:05.169Z,98189.27
2018-07-15T05:01:37.912Z,98194.23
2018-07-15T05:04:07.744Z,98189.20
2018-07-15T05:06:37.120Z,98186.52
2018-07-15T05:09:07.833Z,98180.70
2018-07-15T05:11:38.271Z,98183.18
2018-07-15T05:14:08.272Z,98177.23
2018-07-15T05:16:38.290Z,98186.38
2018-07-15T05:19:07.651Z,98184.59
2018-07-15T05:21:36.972Z,98184.37
2018-07-15T05:24:06.364Z,98182.41
2018-07-15T05:26:35.705Z,98175.58
2018-07-15T05:29:11.292Z,98179.05
2018-07-15T05:31:40.623Z,98182.62
2018-07-15T05:34:09.960Z,98182.64
2018-07-15T05:36:39.306Z,98184.57
2018-07-15T05:39:08.639Z,98188.59
2018-07-15T05:41:38.006Z,98184.55
2018-07-15T05:44:07.387Z,98187.13
2018-07-15T05:46:36.715Z,98188.94
2018-07-15T05:49:06.027Z,98184.16
2018-07-15T05:51:35.583Z,98190.37
2018-07-15T05:54:05.025Z,98185.59
2018-07-15T05:56:34.367Z,98187.34
2018-07-15T05:59:03.787Z,98188.33
2018-07-15T06:01:33.116Z,98186.89
2018-07-15T06:04:02.447Z,98190.89
2018-07-15T06:06:31.771Z,98190.00
2018-07-15T06:09:01.142Z,98189.47
2018-07-15T06:11:30.467Z,98194.77
2018-07-15T06:13:59.908Z,98188.30
2018-07-15T06:16:29.300Z,98185.83
2018-07-15T06:18:58.627Z,98183.59
2018-07-15T06:21:27.980Z,98191.52
2018-07-15T06:23:57.362Z,98184.33
2018-07-15T06:26:26.679Z,98186.19
2018-07-15T06:28:56.069Z,98179.56
2018-07-15T06:31:25.431Z,98181.83
2018-07-15T06:33:54.739Z,98181.42
2018-07-15T06:36:24.088Z,98174.83
2018-07-15T06:38:53.395Z,98175.31
2018-07-15T06:41:22.764Z,98176.52
2018-07-15T06:43:52.176Z,98179.50
2018-07-15T06:46:21.560Z,98177.70
2018-07-15T06:48:50.899Z,98179.91
2018-07-15T06:51:21.215Z,98176.74
2018-07-15T06:53:50.591Z,98169.47
2018-07-15T06:56:21.148Z,98178.77
2018-07-15T06:58:51.027Z,98172.50
2018-07-15T07:01:20.376Z,98178.95
2018-07-15T07:03:49.748Z,98175.62
2018-07-15T07:06:19.064Z,98170.11
2018-07-15T07:08:48.436Z,98175.01
2018-07-15T07:11:17.809Z,98173.33
2018-07-15T07:13:47.160Z,98179.27
2018-07-15T07:16:16.271Z,98174.06
2018-07-15T07:18:45.592Z,98176.03
2018-07-15T07:21:15.041Z,98170.61
2018-07-15T07:23:44.367Z,98169.19
2018-07-15T07:26:13.674Z,98165.91
2018-07-15T07:28:43.077Z,98168.73
2018-07-15T07:31:12.588Z,98163.55
2018-07-15T07:33:41.880Z,98160.42
2018-07-15T07:36:11.231Z,98163.27
2018-07-15T07:38:40.607Z,98162.63
2018-07-15T07:41:10.001Z,98164.34
2018-07-15T07:43:39.426Z,98164.70
2018-07-15T07:46:08.766Z,98164.18
2018-07-15T07:48:38.118Z,98164.11
2018-07-15T07:51:07.477Z,98164.28
2018-07-15T07:53:36.800Z,98166.76
2018-07-15T07:56:06.197Z,98165.34
2018-07-15T07:58:35.598Z,98161.83
2018-07-15T08:01:04.956Z,98168.80
2018-07-15T08:03:34.326Z,98165.20
2018-07-15T08:06:03.665Z,98164.30
2018-07-15T08:08:33.040Z,98165.96
2018-07-15T08:11:02.368Z,98168.73
2018-07-15T08:13:32.134Z,98166.11
2018-07-15T08:16:01.202Z,98165.61
2018-07-15T08:18:30.279Z,98161.12
2018-07-15T08:20:59.618Z,98161.02
2018-07-15T08:23:28.957Z,98164.89
2018-07-15T08:25:58.332Z,98163.37
2018-07-15T08:28:27.764Z,98166.82
2018-07-15T08:31:14.974Z,98165.30
2018-07-15T08:33:44.306Z,98161.56
2018-07-15T08:36:13.732Z,98167.08
2018-07-15T08:38:43.393Z,98163.52
2018-07-15T08:41:12.769Z,98160.38
2018-07-15T08:43:42.135Z,98156.87
2018-07-15T08:46:11.767Z,98152.52
2018-07-15T08:48:40.995Z,98157.63
2018-07-15T08:51:10.407Z,98155.64
2018-07-15T08:53:39.735Z,98155.34
2018-07-15T08:56:09.149Z,98150.67
2018-07-15T08:58:38.485Z,98147.30
2018-07-15T09:01:07.902Z,98154.78
2018-07-15T09:03:37.176Z,98153.40
2018-07-15T09:06:06.545Z,98160.23
2018-07-15T09:08:35.936Z,98160.62
2018-07-15T09:11:05.339Z,98151.91
2018-07-15T09:13:34.731Z,98158.78
2018-07-15T09:16:04.123Z,98157.81
2018-07-15T09:18:33.509Z,98149.34
2018-07-15T09:21:02.882Z,98152.99
2018-07-15T09:23:32.208Z,98143.23
2018-07-15T09:26:01.560Z,98146.75
2018-07-15T09:28:30.948Z,98144.45
2018-07-15T09:31:00.270Z,98146.17
2018-07-15T09:33:29.592Z,98142.03
2018-07-15T09:35:58.645Z,98136.64
2018-07-15T09:38:28.029Z,98145.81
2018-07-15T09:40:57.356Z,98139.45
2018-07-15T09:43:26.735Z,98143.85
2018-07-15T09:45:56.038Z,98138.70
2018-07-15T09:48:25.372Z,98141.31
2018-07-15T09:50:54.722Z,98141.48
2018-07-15T09:53:24.084Z,98138.97
2018-07-15T09:55:53.455Z,98139.14
2018-07-15T09:58:22.955Z,98137.66
2018-07-15T10:00:58.392Z,98129.37
2018-07-15T10:03:28.471Z,98129.71
2018-07-15T10:05:57.805Z,98128.20
2018-07-15T10:08:27.144Z,98127.16
2018-07-15T10:10:56.506Z,98127.63
2018-07-15T10:13:25.812Z,98121.71
2018-07-15T10:15:55.165Z,98123.16
2018-07-15T10:18:24.476Z,98121.06
2018-07-15T10:20:53.839Z,98126.30
2018-07-15T10:23:23.156Z,98121.55
2018-07-15T10:25:52.592Z,98116.06
2018-07-15T10:28:21.895Z,98119.53
2018-07-15T10:30:51.250Z,98125.66
2018-07-15T10:33:20.627Z,98120.66
2018-07-15T10:35:50.001Z,98114.69
2018-07-15T10:38:19.381Z,98113.51
2018-07-15T10:40:48.754Z,98118.79
2018-07-15T10:43:18.094Z,98109.85
2018-07-15T10:45:47.446Z,98105.64
2018-07-15T10:48:16.833Z,98106.30
2018-07-15T10:50:46.215Z,98107.16
2018-07-15T10:53:15.559Z,98110.95
2018-07-15T10:55:44.905Z,98108.63
2018-07-15T10:58:14.232Z,98096.42
2018-07-15T11:00:43.588Z,98101.38
2018-07-15T11:03:12.914Z,98091.06
2018-07-15T11:05:42.268Z,98087.13
2018-07-15T11:08:11.651Z,98084.70
2018-07-15T11:10:40.957Z,98086.64
2018-07-15T11:13:10.311Z,98076.47
2018-07-15T11:15:39.661Z,98086.88
2018-07-15T11:18:08.993Z,98087.05
2018-07-15T11:20:38.751Z,98082.22
2018-07-15T11:23:08.100Z,98078.23
2018-07-15T11:25:37.460Z,98082.82
2018-07-15T11:28:06.977Z,98074.50
2018-07-15T11:30:36.369Z,98067.88
2018-07-15T11:33:05.733Z,98070.47
2018-07-15T11:35:35.149Z,98069.14
2018-07-15T11:38:04.509Z,98069.72
2018-07-15T11:40:33.852Z,98070.84
2018-07-15T11:43:03.196Z,98069.39
2018-07-15T11:45:32.781Z,98065.19
2018-07-15T11:48:02.113Z,98059.93
2018-07-15T11:50:31.432Z,98061.84
2018-07-15T11:53:00.911Z,98055.74
2018-07-15T11:55:30.208Z,98060.66
2018-07-15T11:57:59.540Z,98049.18
2018-07-15T12:00:28.966Z,98040.80
2018-07-15T12:02:58.270Z,98045.91
2018-07-15T12:05:27.612Z,98043.33
2018-07-15T12:07:56.928Z,98031.20
2018-07-15T12:10:26.298Z,98031.45
2018-07-15T12:12:55.633Z,98026.84
2018-07-15T12:15:24.963Z,98032.13
2018-07-15T12:17:54.295Z,98025.06
2018-07-15T12:20:23.665Z,98029.42
2018-07-15T12:22:52.992Z,98030.86
2018-07-15T12:25:22.336Z,98028.19
2018-07-15T12:27:51.640Z,98031.40
2018-07-15T12:30:20.959Z,98020.22
2018-07-15T12:32:50.380Z,98022.13
2018-07-15T12:35:19.735Z,98013.77
2018-07-15T12:37:49.097Z,98016.08
2018-07-15T12:40:18.195Z,98015.84
2018-07-15T12:42:47.560Z,98014.01
2018-07-15T12:45:16.988Z,98010.33
2018-07-15T12:47:46.580Z,98010.30
2018-07-15T12:50:15.916Z,98005.20
2018-07-15T12:52:45.236Z,98005.05
2018-07-15T12:55:14.588Z,98002.67
2018-07-15T12:57:43.916Z,98001.88
2018-07-15T13:00:13.006Z,97997.78
2018-07-15T13:02:42.332Z,97990.41
2018-07-15T13:05:11.835Z,97988.70
2018-07-15T13:07:41.201Z,97985.63
2018-07-15T13:10:10.523Z,97981.63
2018-07-15T13:12:39.881Z,97987.47
2018-07-15T13:15:09.295Z,97981.00
2018-07-15T13:17:38.623Z,97974.39
2018-07-15T13:20:07.949Z,97973.09
2018-07-15T13:22:37.268Z,97970.03
2018-07-15T13:25:06.628Z,97969.02
2018-07-15T13:27:35.945Z,97966.72
2018-07-15T13:30:05.328Z,97960.25
2018-07-15T13:32:34.720Z,97958.80
2018-07-15T13:35:04.085Z,97954.77
2018-07-15T13:37:33.432Z,97950.08
2018-07-15T13:40:02.912Z,97940.75
2018-07-15T13:42:32.212Z,97939.14
2018-07-15T13:45:01.541Z,97940.59
2018-07-15T13:47:31.016Z,97939.80
2018-07-15T13:50:00.355Z,97929.73
2018-07-15T13:52:29.764Z,97936.36
2018-07-15T13:54:59.077Z,97943.11
2018-07-15T13:57:28.424Z,97940.63
2018-07-15T13:59:57.766Z,97935.39
2018-07-15T14:02:27.082Z,97931.62
2018-07-15T14:04:56.412Z,97930.78
2018-07-15T14:07:25.724Z,97932.70
2018-07-15T14:09:55.103Z,97935.01
2018-07-15T14:12:24.433Z,97933.59
2018-07-15T14:14:53.790Z,97930.14
2018-07-15T14:17:23.108Z,97926.12
2018-07-15T14:19:52.544Z,97934.50
2018-07-15T14:22:21.872Z,97925.26
2018-07-15T14:24:51.188Z,97923.02
2018-07-15T14:27:20.601Z,97923.30
2018-07-15T14:29:49.973Z,97928.02
2018-07-15T14:32:19.424Z,97932.70
2018-07-15T14:34:48.845Z,97933.47
2018-07-15T14:37:18.251Z,97931.45
2018-07-15T14:39:47.575Z,97924.80
2018-07-15T14:42:16.889Z,97928.95
2018-07-15T14:44:46.279Z,97920.95
2018-07-15T14:47:15.595Z,97923.39
2018-07-15T14:49:44.958Z,97929.31
2018-07-15T14:52:14.281Z,97928.95
2018-07-15T14:54:43.591Z,97935.02
2018-07-15T14:57:13.052Z,97927.20
2018-07-15T14:59:42.586Z,97925.94
2018-07-15T15:02:11.990Z,97922.89
2018-07-15T15:04:41.349Z,97919.24
2018-07-15T15:07:10.841Z,97926.02
2018-07-15T15:09:40.636Z,97918.14
2018-07-15T15:12:10.152Z,97917.71
2018-07-15T15:14:39.537Z,97914.08
2018-07-15T15:17:08.919Z,97913.03
2018-07-15T15:19:38.283Z,97916.52
2018-07-15T15:22:07.630Z,97907.47
2018-07-15T15:24:37.070Z,97905.53
2018-07-15T15:27:06.484Z,97891.77
2018-07-15T15:29:35.863Z,97894.72
2018-07-15T15:32:05.257Z,97899.80
2018-07-15T15:34:34.640Z,97901.33
2018-07-15T15:37:03.960Z,97903.33
2018-07-15T15:39:33.384Z,97899.44
2018-07-15T15:42:03.002Z,97900.78
2018-07-15T15:44:32.477Z,97897.86
2018-07-15T15:47:01.880Z,97903.16
2018-07-15T15:49:31.420Z,97897.65
2018-07-15T15:52:00.797Z,97897.87
2018-07-15T15:54:30.124Z,97899.35
2018-07-15T15:56:59.452Z,97899.83
2018-07-15T15:59:28.767Z,97894.23
2018-07-15T16:01:58.196Z,97894.12
2018-07-15T16:04:27.607Z,97895.87
2018-07-15T16:06:56.987Z,97891.03
2018-07-15T16:09:27.420Z,97898.39
2018-07-15T16:11:56.774Z,97887.72
2018-07-15T16:14:26.096Z,97894.65
2018-07-15T16:16:56.423Z,97889.84
2018-07-15T16:19:25.768Z,97888.89
2018-07-15T16:21:55.111Z,97886.45
2018-07-15T16:24:24.539Z,97893.07
2018-07-15T16:26:53.896Z,97891.38
2018-07-15T16:29:23.244Z,97890.91
2018-07-15T16:31:52.560Z,97895.03
2018-07-15T16:34:21.896Z,97895.59
2018-07-15T16:36:51.269Z,97885.96
2018-07-15T16:39:20.626Z,97890.34
2018-07-15T16:41:50.068Z,97894.63
2018-07-15T16:44:19.396Z,97891.83
2018-07-15T16:46:50.081Z,97896.16
2018-07-15T16:49:20.073Z,97894.86
2018-07-15T16:51:49.660Z,97890.23
2018-07-15T16:54:19.447Z,97899.31
2018-07-15T16:56:49.166Z,97899.13
2018-07-15T16:59:19.222Z,97896.28
2018-07-15T17:01:48.799Z,97897.37
2018-07-15T17:04:18.336Z,97898.14
2018-07-15T17:06:47.833Z,97897.81
2018-07-15T17:09:17.231Z,97896.22
2018-07-15T17:11:46.588Z,97897.91
2018-07-15T17:14:15.987Z,97893.44
2018-07-15T17:16:45.223Z,97889.87
2018-07-15T17:19:14.577Z,97892.97
2018-07-15T17:21:43.930Z,97893.33
2018-07-15T17:24:13.264Z,97895.10
2018-07-15T17:26:45.795Z,97884.87
2018-07-15T17:29:15.172Z,97884.49
2018-07-15T17:31:44.644Z,97887.53
2018-07-15T17:34:13.973Z,97881.39
2018-07-15T17:36:43.364Z,97877.17
2018-07-15T17:39:12.706Z,97877.31
2018-07-15T17:41:42.136Z,97872.19
2018-07-15T17:44:11.576Z,97873.41
2018-07-15T17:46:41.084Z,97868.52
2018-07-15T17:49:10.287Z,97864.41
2018-07-15T17:51:39.715Z,97869.78
2018-07-15T17:54:09.034Z,97865.78
2018-07-15T17:56:38.500Z,97874.31
2018-07-15T17:59:07.821Z,97866.66
2018-07-15T18:01:37.248Z,97866.07
2018-07-15T18:04:06.687Z,97865.29
2018-07-15T18:06:36.030Z,97863.20
2018-07-15T18:09:06.392Z,97865.97
2018-07-15T18:11:35.737Z,97867.48
2018-07-15T18:14:05.106Z,97865.89
2018-07-15T18:16:34.595Z,97875.52
2018-07-15T18:19:04.128Z,97874.97
2018-07-15T18:21:33.436Z,97868.32
2018-07-15T18:24:02.880Z,97872.84
2018-07-15T18:26:32.196Z,97867.22
2018-07-15T18:29:01.561Z,97873.14
2018-07-15T18:31:30.911Z,97865.95
2018-07-15T18:34:00.251Z,97871.99
2018-07-15T18:36:29.643Z,97870.59
2018-07-15T18:38:59.032Z,97880.44
2018-07-15T18:41:28.328Z,97884.27
2018-07-15T18:43:57.652Z,97882.13
2018-07-15T18:46:26.707Z,97883.77
2018-07-15T18:48:56.028Z,97881.00
2018-07-15T18:51:25.359Z,97880.48
2018-07-15T18:53:59.381Z,97884.59
2018-07-15T18:56:28.697Z,97889.22
2018-07-15T18:58:58.039Z,97890.67
2018-07-15T19:01:27.342Z,97889.09
2018-07-15T19:03:56.781Z,97890.59
2018-07-15T19:06:25.902Z,97892.64
2018-07-15T19:08:55.202Z,97891.48
2018-07-15T19:11:24.705Z,97896.83
2018-07-15T19:13:54.031Z,97902.16
2018-07-15T19:16:23.353Z,97902.88
2018-07-15T19:18:52.712Z,97900.31
2018-07-15T19:21:22.041Z,97900.80
2018-07-15T19:23:51.396Z,97904.68
2018-07-15T19:26:20.748Z,97903.79
2018-07-15T19:28:50.081Z,97905.30
2018-07-15T19:31:19.422Z,97908.21
2018-07-15T19:33:48.768Z,97915.30
2018-07-15T19:36:18.331Z,97915.18
2018-07-15T19:38:47.671Z,97918.23
2018-07-15T19:41:17.044Z,97921.91
2018-07-15T19:43:46.377Z,97921.91
2018-07-15T19:46:15.744Z,97912.36
2018-07-15T19:48:45.117Z,97912.50
2018-07-15T19:51:14.424Z,97916.52
2018-07-15T19:53:43.797Z,97915.38
2018-07-15T19:56:13.136Z,97919.46
2018-07-15T19:58:42.644Z,97917.69
2018-07-15T20:01:13.224Z,97930.28
2018-07-15T20:03:43.795Z,97929.36
2018-07-15T20:06:14.378Z,97924.08
2018-07-15T20:08:43.841Z,97926.55
2018-07-15T20:11:14.083Z,97927.86
2018-07-15T20:13:44.079Z,97931.98
2018-07-15T20:16:14.076Z,97928.14
2018-07-15T20:18:43.495Z,97938.62
2018-07-15T20:21:13.208Z,97933.20
2018-07-15T20:23:42.658Z,97934.09
2018-07-15T20:26:12.023Z,97934.42
2018-07-15T20:28:41.775Z,97936.48
2018-07-15T20:31:11.440Z,97940.72
2018-07-15T20:33:41.042Z,97937.73
2018-07-15T20:36:10.729Z,97940.72
2018-07-15T20:38:40.258Z,97943.05
2018-07-15T20:41:10.400Z,97941.59
2018-07-15T20:43:39.884Z,97947.86
2018-07-15T20:46:09.478Z,97950.69
2018-07-15T20:48:38.800Z,97947.58
2018-07-15T20:51:08.184Z,97941.06
2018-07-15T20:53:37.568Z,97944.50
2018-07-15T20:56:06.984Z,97947.89
2018-07-15T20:58:36.914Z,97951.14
2018-07-15T21:01:09.369Z,97946.23
2018-07-15T21:03:38.450Z,97944.53
2018-07-15T21:06:07.869Z,97950.59
2018-07-15T21:08:37.271Z,97953.50
2018-07-15T21:11:06.597Z,97951.33
2018-07-15T21:13:35.937Z,97949.28
2018-07-15T21:16:05.399Z,97946.89
2018-07-15T21:18:34.764Z,97953.09
2018-07-15T21:21:04.112Z,97946.14
2018-07-15T21:23:33.441Z,97949.03
2018-07-15T21:26:02.823Z,97951.03
2018-07-15T21:28:32.157Z,97954.25
2018-07-15T21:31:01.576Z,97949.41
2018-07-15T21:33:31.269Z,97948.78
2018-07-15T21:36:00.676Z,97945.33
2018-07-15T21:38:30.076Z,97947.94
2018-07-15T21:40:59.488Z,97946.55
2018-07-15T21:43:28.548Z,97953.47
2018-07-15T21:45:57.918Z,97951.61
2018-07-15T21:48:27.324Z,97953.33
2018-07-15T21:50:56.655Z,97958.53
2018-07-15T21:53:25.964Z,97954.12
2018-07-15T21:55:55.333Z,97961.41
2018-07-15T21:58:24.681Z,97960.34
2018-07-15T22:00:55.062Z,97968.36
2018-07-15T22:03:25.192Z,97969.99
2018-07-15T22:05:54.535Z,97969.53
2018-07-15T22:08:40.825Z,97972.73
2018-07-15T22:11:10.164Z,97977.28
2018-07-15T22:13:39.493Z,97969.05
2018-07-15T22:16:08.811Z,97968.80
2018-07-15T22:18:38.593Z,97972.52
2018-07-15T22:21:07.988Z,97974.03
2018-07-15T22:30:12.344Z,97968.33
2018-07-15T22:32:41.663Z,97979.36
2018-07-15T22:35:10.984Z,97976.64
2018-07-15T22:37:40.577Z,97975.72
2018-07-15T22:40:13.570Z,97978.67
2018-07-15T22:42:42.896Z,97970.02
2018-07-15T22:45:12.222Z,97980.05
2018-07-15T22:47:41.541Z,97968.97
2018-07-15T22:50:10.949Z,97965.87
2018-07-15T22:52:40.308Z,97969.98
2018-07-15T22:55:09.635Z,97969.15
2018-07-15T22:57:39.020Z,97970.16
2018-07-15T23:00:09.175Z,97968.36
2018-07-15T23:02:38.567Z,97964.75
2018-07-15T23:05:52.234Z,97967.39
2018-07-15T23:08:22.258Z,97958.55
2018-07-15T23:10:51.648Z,97963.16
2018-07-15T23:13:21.264Z,97964.18
2018-07-15T23:15:50.981Z,97963.92
2018-07-15T23:18:20.449Z,97960.18
2018-07-15T23:20:50.396Z,97962.83
2018-07-15T23:23:20.613Z,97956.79
2018-07-15T23:25:49.968Z,97963.72
2018-07-15T23:28:19.287Z,97960.67
2018-07-15T23:30:48.631Z,97954.88
2018-07-15T23:33:17.971Z,97945.36
2018-07-15T23:35:47.297Z,97952.74
2018-07-15T23:38:16.636Z,97954.50
2018-07-15T23:40:45.957Z,97955.08
2018-07-15T23:43:15.304Z,97956.13
2018-07-15T23:45:44.635Z,97954.56
2018-07-15T23:48:13.987Z,97956.56
2018-07-15T23:50:43.344Z,97955.53
2018-07-15T23:53:12.676Z,97959.13
2018-07-15T23:55:42.123Z,97951.16
2018-07-15T23:58:11.461Z,97950.02
